createdAt,value
2022-12-18T00:16:45.794Z,84.03
2022-12-18T00:38:29.126Z,84.54
2022-12-18T01:00:15.641Z,84.66
2022-12-18T01:43:57.947Z,83.86
2022-12-18T02:05:47.016Z,84.21
2022-12-18T02:38:16.944Z,84.33
2022-12-18T03:00:09.922Z,84.53
2022-12-18T03:21:59.424Z,84.44
2022-12-18T03:43:51.327Z,84.85
2022-12-18T04:05:39.088Z,83.86
2022-12-18T04:27:26.059Z,84.72
2022-12-18T04:49:12.503Z,84.17
2022-12-18T05:11:05.336Z,83.84
2022-12-18T05:32:51.244Z,83.19
2022-12-18T05:54:37.442Z,83.28
2022-12-18T06:16:21.853Z,82.57
2022-12-18T06:38:07.672Z,82.82
2022-12-18T06:59:53.476Z,83.68
2022-12-18T07:21:39.386Z,82.24
2022-12-18T07:43:25.131Z,82.29
2022-12-18T08:05:09.950Z,81.76
2022-12-18T08:27:13.459Z,81.28
2022-12-18T08:49:01.435Z,80.72
2022-12-18T09:10:50.033Z,81.42
2022-12-18T09:32:35.823Z,79.08
2022-12-18T09:54:22.666Z,77.40
2022-12-18T10:16:18.708Z,78.52
2022-12-18T10:38:07.779Z,78.07
2022-12-18T10:59:58.704Z,79.63
2022-12-18T11:21:45.139Z,78.79
2022-12-18T11:43:34.206Z,79.27
2022-12-18T12:13:26.364Z,77.06
2022-12-18T12:35:27.383Z,77.12
2022-12-18T12:57:18.175Z,77.67
2022-12-18T13:28:17.797Z,77.25
2022-12-18T13:50:11.140Z,78.56
2022-12-18T14:12:18.610Z,78.15
2022-12-18T14:43:17.700Z,80.05
2022-12-18T15:05:12.701Z,80.29
2022-12-18T15:43:44.398Z,81.28
2022-12-18T16:05:30.898Z,80.97
2022-12-18T16:27:16.648Z,82.46
2022-12-18T16:49:03.196Z,82.82
2022-12-18T17:10:48.891Z,81.99
2022-12-18T17:32:34.685Z,82.32
2022-12-18T17:54:20.599Z,82.23
2022-12-18T18:16:07.063Z,82.70
2022-12-18T18:37:52.912Z,83.05
2022-12-18T18:59:39.432Z,83.39
2022-12-18T19:43:25.180Z,81.98
2022-12-18T20:05:14.116Z,81.98
2022-12-18T20:43:45.058Z,81.62
2022-12-18T21:05:31.248Z,81.91
2022-12-18T21:27:18.121Z,82.26
2022-12-18T21:49:05.296Z,81.49
2022-12-18T22:10:50.957Z,81.05
2022-12-18T22:43:40.548Z,80.61
2022-12-18T23:05:26.293Z,80.85
2022-12-18T23:27:12.330Z,81.15
2022-12-18T23:49:00.187Z,81.26
